sensor_id;sensor_type;location;lat;lon;timestamp;pressure;altitude;pressure_sealevel;temperature;humidity
69879;BME280;57161;43.136;24.706;2023-03-03T00:00:33;99569.78;;;4.88;88.82
69879;BME280;57161;43.136;24.706;2023-03-03T00:03:03;99530.88;;;4.60;87.88
69879;BME280;57161;43.136;24.706;2023-03-03T00:05:31;99587.19;;;5.00;88.53
69879;BME280;57161;43.136;24.706;2023-03-03T00:08:01;99525.59;;;4.62;87.72
69879;BME280;57161;43.136;24.706;2023-03-03T00:10:27;99566.28;;;4.93;88.06
69879;BME280;57161;43.136;24.706;2023-03-03T00:12:52;99574.88;;;5.01;87.92
69879;BME280;57161;43.136;24.706;2023-03-03T00:15:23;99551.13;;;4.83;88.19
69879;BME280;57161;43.136;24.706;2023-03-03T00:17:50;99494.41;;;4.62;88.54
69879;BME280;57161;43.136;24.706;2023-03-03T00:20:30;99558.31;;;5.12;88.55
69879;BME280;57161;43.136;24.706;2023-03-03T00:23:13;99548.47;;;5.11;88.31
69879;BME280;57161;43.136;24.706;2023-03-03T00:25:43;99500.78;;;4.79;88.33
69879;BME280;57161;43.136;24.706;2023-03-03T00:30:47;99557.84;;;5.25;87.91
69879;BME280;57161;43.136;24.706;2023-03-03T00:33:30;99541.50;;;5.27;88.10
69879;BME280;57161;43.136;24.706;2023-03-03T00:38:40;99521.81;;;5.19;87.92
69879;BME280;57161;43.136;24.706;2023-03-03T00:41:26;99526.13;;;5.26;88.31
69879;BME280;57161;43.136;24.706;2023-03-03T00:43:52;99537.72;;;5.30;88.29
69879;BME280;57161;43.136;24.706;2023-03-03T00:46:20;99531.16;;;5.33;87.99
69879;BME280;57161;43.136;24.706;2023-03-03T00:48:47;99481.50;;;5.07;87.73
69879;BME280;57161;43.136;24.706;2023-03-03T00:51:27;99514.28;;;5.36;87.34
69879;BME280;57161;43.136;24.706;2023-03-03T00:53:54;99516.84;;;5.40;87.47
69879;BME280;57161;43.136;24.706;2023-03-03T00:56:20;99516.34;;;5.41;87.25
69879;BME280;57161;43.136;24.706;2023-03-03T00:58:46;99519.09;;;5.41;87.30
69879;BME280;57161;43.136;24.706;2023-03-03T01:01:13;99511.81;;;5.38;87.54
69879;BME280;57161;43.136;24.706;2023-03-03T01:03:39;99518.34;;;5.41;87.45
69879;BME280;57161;43.136;24.706;2023-03-03T01:06:06;99507.78;;;5.45;87.33
69879;BME280;57161;43.136;24.706;2023-03-03T01:08:32;99513.56;;;5.47;87.33
69879;BME280;57161;43.136;24.706;2023-03-03T01:11:02;99468.94;;;5.28;86.72
69879;BME280;57161;43.136;24.706;2023-03-03T01:13:32;99501.97;;;5.43;87.62
69879;BME280;57161;43.136;24.706;2023-03-03T01:16:00;99494.66;;;5.34;87.73
69879;BME280;57161;43.136;24.706;2023-03-03T01:18:26;99454.78;;;4.98;87.72
69879;BME280;57161;43.136;24.706;2023-03-03T01:20:52;99480.03;;;5.28;87.97
69879;BME280;57161;43.136;24.706;2023-03-03T01:23:18;99483.31;;;5.32;87.85
69879;BME280;57161;43.136;24.706;2023-03-03T01:25:43;99495.69;;;5.42;87.43
69879;BME280;57161;43.136;24.706;2023-03-03T01:28:09;99501.22;;;5.42;87.94
69879;BME280;57161;43.136;24.706;2023-03-03T01:30:35;99481.81;;;5.37;87.51
69879;BME280;57161;43.136;24.706;2023-03-03T01:33:00;99500.94;;;5.35;87.62
69879;BME280;57161;43.136;24.706;2023-03-03T01:35:26;99489.63;;;5.38;87.48
69879;BME280;57161;43.136;24.706;2023-03-03T01:37:54;99437.69;;;5.05;87.10
69879;BME280;57161;43.136;24.706;2023-03-03T01:40:22;99485.34;;;5.43;87.29
69879;BME280;57161;43.136;24.706;2023-03-03T01:42:48;99480.53;;;5.32;87.81
69879;BME280;57161;43.136;24.706;2023-03-03T01:45:21;99490.41;;;5.39;87.61
69879;BME280;57161;43.136;24.706;2023-03-03T01:48:03;99439.97;;;5.07;87.59
69879;BME280;57161;43.136;24.706;2023-03-03T01:50:50;99477.78;;;5.38;87.49
69879;BME280;57161;43.136;24.706;2023-03-03T01:53:42;99477.53;;;5.41;87.45
69879;BME280;57161;43.136;24.706;2023-03-03T01:56:09;99448.31;;;5.24;87.18
69879;BME280;57161;43.136;24.706;2023-03-03T01:58:42;99459.63;;;5.26;87.75
69879;BME280;57161;43.136;24.706;2023-03-03T02:01:13;99474.28;;;5.37;88.06
69879;BME280;57161;43.136;24.706;2023-03-03T02:03:40;99487.88;;;5.41;88.01
69879;BME280;57161;43.136;24.706;2023-03-03T02:06:09;99490.13;;;5.42;88.48
69879;BME280;57161;43.136;24.706;2023-03-03T02:08:58;99480.06;;;5.45;88.65
69879;BME280;57161;43.136;24.706;2023-03-03T02:11:25;99479.56;;;5.41;88.36
69879;BME280;57161;43.136;24.706;2023-03-03T02:13:52;99453.84;;;5.29;88.44
69879;BME280;57161;43.136;24.706;2023-03-03T02:16:18;99458.38;;;5.32;88.49
69879;BME280;57161;43.136;24.706;2023-03-03T02:18:43;99433.16;;;5.08;88.71
69879;BME280;57161;43.136;24.706;2023-03-03T02:21:11;99437.44;;;5.15;88.65
69879;BME280;57161;43.136;24.706;2023-03-03T02:23:46;99479.84;;;5.54;88.50
69879;BME280;57161;43.136;24.706;2023-03-03T02:26:17;99452.59;;;5.41;87.89
69879;BME280;57161;43.136;24.706;2023-03-03T02:28:43;99468.25;;;5.56;87.60
69879;BME280;57161;43.136;24.706;2023-03-03T02:31:14;99475.28;;;5.62;87.66
69879;BME280;57161;43.136;24.706;2023-03-03T02:33:43;99469.72;;;5.51;87.99
69879;BME280;57161;43.136;24.706;2023-03-03T02:36:14;99461.91;;;5.44;88.16
69879;BME280;57161;43.136;24.706;2023-03-03T02:41:42;99484.63;;;5.54;88.64
69879;BME280;57161;43.136;24.706;2023-03-03T02:44:14;99427.13;;;5.15;88.84
69879;BME280;57161;43.136;24.706;2023-03-03T02:46:43;99477.28;;;5.45;89.38
69879;BME280;57161;43.136;24.706;2023-03-03T02:49:11;99488.63;;;5.41;89.91
69879;BME280;57161;43.136;24.706;2023-03-03T02:51:38;99487.38;;;5.42;90.33
69879;BME280;57161;43.136;24.706;2023-03-03T02:54:04;99416.50;;;4.97;90.50
69879;BME280;57161;43.136;24.706;2023-03-03T02:56:29;99441.97;;;5.12;90.51
69879;BME280;57161;43.136;24.706;2023-03-03T02:58:55;99433.13;;;5.02;90.53
69879;BME280;57161;43.136;24.706;2023-03-03T03:01:20;99402.63;;;4.80;91.31
69879;BME280;57161;43.136;24.706;2023-03-03T03:03:47;99477.75;;;5.21;91.66
69879;BME280;57161;43.136;24.706;2023-03-03T03:06:12;99479.53;;;5.30;91.86
69879;BME280;57161;43.136;24.706;2023-03-03T03:08:38;99438.94;;;5.04;91.92
69879;BME280;57161;43.136;24.706;2023-03-03T03:11:04;99438.97;;;5.10;91.63
69879;BME280;57161;43.136;24.706;2023-03-03T03:13:31;99430.38;;;5.13;91.64
69879;BME280;57161;43.136;24.706;2023-03-03T03:15:57;99460.13;;;5.30;91.49
69879;BME280;57161;43.136;24.706;2023-03-03T03:18:23;99487.88;;;5.47;90.39
69879;BME280;57161;43.136;24.706;2023-03-03T03:20:49;99477.53;;;5.41;90.33
69879;BME280;57161;43.136;24.706;2023-03-03T03:23:15;99458.88;;;5.31;90.77
69879;BME280;57161;43.136;24.706;2023-03-03T03:25:40;99475.28;;;5.40;90.92
69879;BME280;57161;43.136;24.706;2023-03-03T03:28:13;99470.22;;;5.44;90.49
69879;BME280;57161;43.136;24.706;2023-03-03T03:30:40;99471.25;;;5.41;90.58
69879;BME280;57161;43.136;24.706;2023-03-03T03:33:06;99477.78;;;5.43;90.27
69879;BME280;57161;43.136;24.706;2023-03-03T03:35:32;99462.94;;;5.47;90.22
69879;BME280;57161;43.136;24.706;2023-03-03T03:37:58;99426.91;;;5.24;89.95
69879;BME280;57161;43.136;24.706;2023-03-03T03:40:24;99460.91;;;5.30;90.04
69879;BME280;57161;43.136;24.706;2023-03-03T03:42:51;99433.16;;;5.08;90.56
69879;BME280;57161;43.136;24.706;2023-03-03T03:45:17;99448.53;;;5.15;90.84
69879;BME280;57161;43.136;24.706;2023-03-03T03:47:42;99431.38;;;4.94;91.76
69879;BME280;57161;43.136;24.706;2023-03-03T03:50:09;99445.97;;;5.00;91.87
69879;BME280;57161;43.136;24.706;2023-03-03T03:52:35;99451.25;;;5.03;91.45
69879;BME280;57161;43.136;24.706;2023-03-03T03:55:00;99439.16;;;4.95;91.78
69879;BME280;57161;43.136;24.706;2023-03-03T03:57:26;99425.81;;;4.88;92.43
69879;BME280;57161;43.136;24.706;2023-03-03T03:59:51;99389.22;;;4.56;92.64
69879;BME280;57161;43.136;24.706;2023-03-03T04:02:17;99358.44;;;4.32;93.09
69879;BME280;57161;43.136;24.706;2023-03-03T04:04:43;99417.44;;;4.71;93.00
69879;BME280;57161;43.136;24.706;2023-03-03T04:07:08;99417.44;;;4.66;93.29
69879;BME280;57161;43.136;24.706;2023-03-03T04:09:34;99372.25;;;4.26;93.51
69879;BME280;57161;43.136;24.706;2023-03-03T04:11:59;99418.69;;;4.59;93.72
69879;BME280;57161;43.136;24.706;2023-03-03T04:14:25;99373.47;;;4.19;93.94
69879;BME280;57161;43.136;24.706;2023-03-03T04:16:50;99382.28;;;4.18;94.38
69879;BME280;57161;43.136;24.706;2023-03-03T04:19:16;99431.97;;;4.49;94.83
69879;BME280;57161;43.136;24.706;2023-03-03T04:21:42;99411.03;;;4.37;95.13
69879;BME280;57161;43.136;24.706;2023-03-03T04:24:07;99429.44;;;4.46;95.18
69879;BME280;57161;43.136;24.706;2023-03-03T04:26:33;99376.72;;;4.12;94.90
69879;BME280;57161;43.136;24.706;2023-03-03T04:28:58;99386.06;;;4.20;95.13
69879;BME280;57161;43.136;24.706;2023-03-03T04:31:25;99416.28;;;4.35;95.58
69879;BME280;57161;43.136;24.706;2023-03-03T04:33:51;99426.41;;;4.49;95.64
69879;BME280;57161;43.136;24.706;2023-03-03T04:36:18;99429.00;;;4.59;95.37
69879;BME280;57161;43.136;24.706;2023-03-03T04:38:43;99422.94;;;4.60;93.91
69879;BME280;57161;43.136;24.706;2023-03-03T04:41:09;99418.91;;;4.56;93.80
69879;BME280;57161;43.136;24.706;2023-03-03T04:43:34;99437.53;;;4.61;94.12
69879;BME280;57161;43.136;24.706;2023-03-03T04:46:00;99415.41;;;4.66;94.14
69879;BME280;57161;43.136;24.706;2023-03-03T04:48:26;99403.34;;;4.69;93.40
69879;BME280;57161;43.136;24.706;2023-03-03T04:50:52;99423.28;;;4.85;93.17
69879;BME280;57161;43.136;24.706;2023-03-03T04:53:17;99415.00;;;4.90;93.00
69879;BME280;57161;43.136;24.706;2023-03-03T04:55:43;99413.25;;;4.98;91.72
69879;BME280;57161;43.136;24.706;2023-03-03T04:58:08;99373.94;;;4.77;91.36
69879;BME280;57161;43.136;24.706;2023-03-03T05:00:35;99434.41;;;5.18;91.25
69879;BME280;57161;43.136;24.706;2023-03-03T05:03:00;99430.69;;;5.21;91.21
69879;BME280;57161;43.136;24.706;2023-03-03T05:05:26;99412.00;;;5.10;90.60
69879;BME280;57161;43.136;24.706;2023-03-03T05:07:52;99437.97;;;5.30;90.73
69879;BME280;57161;43.136;24.706;2023-03-03T05:10:18;99370.69;;;4.90;90.73
69879;BME280;57161;43.136;24.706;2023-03-03T05:12:43;99439.72;;;5.33;90.52
69879;BME280;57161;43.136;24.706;2023-03-03T05:15:09;99389.84;;;4.99;90.34
69879;BME280;57161;43.136;24.706;2023-03-03T05:17:35;99411.53;;;5.23;89.54
69879;BME280;57161;43.136;24.706;2023-03-03T05:20:01;99415.03;;;5.18;88.86
69879;BME280;57161;43.136;24.706;2023-03-03T05:22:26;99424.38;;;5.43;88.39
69879;BME280;57161;43.136;24.706;2023-03-03T05:24:52;99445.03;;;5.48;88.64
69879;BME280;57161;43.136;24.706;2023-03-03T05:27:18;99448.59;;;5.54;88.60
69879;BME280;57161;43.136;24.706;2023-03-03T05:29:44;99425.66;;;5.42;87.98
69879;BME280;57161;43.136;24.706;2023-03-03T05:32:10;99429.94;;;5.43;88.22
69879;BME280;57161;43.136;24.706;2023-03-03T05:34:35;99446.81;;;5.51;88.49
69879;BME280;57161;43.136;24.706;2023-03-03T05:37:01;99433.97;;;5.48;88.58
69879;BME280;57161;43.136;24.706;2023-03-03T05:39:28;99397.69;;;5.23;88.49
69879;BME280;57161;43.136;24.706;2023-03-03T05:41:53;99444.56;;;5.55;88.57
69879;BME280;57161;43.136;24.706;2023-03-03T05:44:20;99381.78;;;5.18;88.26
69879;BME280;57161;43.136;24.706;2023-03-03T05:46:45;99410.28;;;5.41;87.94
69879;BME280;57161;43.136;24.706;2023-03-03T05:49:11;99418.34;;;5.50;88.16
69879;BME280;57161;43.136;24.706;2023-03-03T05:51:36;99423.66;;;5.54;88.30
69879;BME280;57161;43.136;24.706;2023-03-03T05:54:02;99456.16;;;5.70;88.33
69879;BME280;57161;43.136;24.706;2023-03-03T05:56:27;99418.84;;;5.54;87.78
69879;BME280;57161;43.136;24.706;2023-03-03T05:58:53;99412.53;;;5.48;87.35
69879;BME280;57161;43.136;24.706;2023-03-03T06:01:18;99431.44;;;5.61;87.16
69879;BME280;57161;43.136;24.706;2023-03-03T06:03:44;99389.38;;;5.23;87.48
69879;BME280;57161;43.136;24.706;2023-03-03T06:06:10;99438.50;;;5.62;87.28
69879;BME280;57161;43.136;24.706;2023-03-03T06:08:36;99446.56;;;5.49;88.16
69879;BME280;57161;43.136;24.706;2023-03-03T06:11:02;99423.88;;;5.33;88.21
69879;BME280;57161;43.136;24.706;2023-03-03T06:13:27;99446.31;;;5.41;88.65
69879;BME280;57161;43.136;24.706;2023-03-03T06:15:54;99431.41;;;5.16;89.10
69879;BME280;57161;43.136;24.706;2023-03-03T06:18:19;99456.88;;;5.31;89.37
69879;BME280;57161;43.136;24.706;2023-03-03T06:20:50;99454.59;;;5.35;89.47
69879;BME280;57161;43.136;24.706;2023-03-03T06:23:15;99413.00;;;5.02;89.06
69879;BME280;57161;43.136;24.706;2023-03-03T06:25:41;99446.53;;;5.26;89.37
69879;BME280;57161;43.136;24.706;2023-03-03T06:28:07;99413.03;;;5.13;89.27
69879;BME280;57161;43.136;24.706;2023-03-03T06:30:32;99455.13;;;5.45;89.48
69879;BME280;57161;43.136;24.706;2023-03-03T06:32:58;99419.34;;;5.30;89.11
69879;BME280;57161;43.136;24.706;2023-03-03T06:35:23;99414.53;;;5.31;87.24
69879;BME280;57161;43.136;24.706;2023-03-03T06:37:49;99425.66;;;5.48;87.34
69879;BME280;57161;43.136;24.706;2023-03-03T06:40:15;99457.66;;;5.77;87.38
69879;BME280;57161;43.136;24.706;2023-03-03T06:42:40;99458.91;;;5.76;87.05
69879;BME280;57161;43.136;24.706;2023-03-03T06:45:06;99451.38;;;5.70;86.58
69879;BME280;57161;43.136;24.706;2023-03-03T06:47:32;99454.13;;;5.82;86.55
69879;BME280;57161;43.136;24.706;2023-03-03T06:49:58;99456.63;;;5.80;86.06
69879;BME280;57161;43.136;24.706;2023-03-03T06:52:25;99461.44;;;5.73;87.15
69879;BME280;57161;43.136;24.706;2023-03-03T06:54:59;99453.34;;;5.81;85.27
69879;BME280;57161;43.136;24.706;2023-03-03T06:57:31;99458.41;;;5.77;85.86
69879;BME280;57161;43.136;24.706;2023-03-03T07:00:18;99466.47;;;5.64;86.02
69879;BME280;57161;43.136;24.706;2023-03-03T07:02:46;99450.59;;;5.59;86.76
69879;BME280;57161;43.136;24.706;2023-03-03T07:05:15;99455.41;;;5.69;86.82
69879;BME280;57161;43.136;24.706;2023-03-03T07:07:44;99440.78;;;5.58;86.95
69879;BME280;57161;43.136;24.706;2023-03-03T07:10:23;99437.97;;;5.52;87.13
69879;BME280;57161;43.136;24.706;2023-03-03T07:12:48;99447.06;;;5.64;87.08
69879;BME280;57161;43.136;24.706;2023-03-03T07:15:23;99449.09;;;5.75;86.76
69879;BME280;57161;43.136;24.706;2023-03-03T07:17:54;99442.00;;;5.85;86.83
69879;BME280;57161;43.136;24.706;2023-03-03T07:20:38;99445.81;;;5.93;85.81
69879;BME280;57161;43.136;24.706;2023-03-03T07:25:47;99416.03;;;5.82;85.48
69879;BME280;57161;43.136;24.706;2023-03-03T07:28:23;99442.28;;;6.04;84.59
69879;BME280;57161;43.136;24.706;2023-03-03T07:30:50;99453.13;;;6.07;84.28
69879;BME280;57161;43.136;24.706;2023-03-03T07:33:30;99433.97;;;5.92;84.16
69879;BME280;57161;43.136;24.706;2023-03-03T07:35:59;99443.78;;;5.82;84.87
69879;BME280;57161;43.136;24.706;2023-03-03T07:40:56;99385.84;;;5.39;86.00
69879;BME280;57161;43.136;24.706;2023-03-03T07:43:30;99391.38;;;5.39;86.67
69879;BME280;57161;43.136;24.706;2023-03-03T07:48:37;99429.91;;;5.82;85.84
69879;BME280;57161;43.136;24.706;2023-03-03T07:53:39;99409.25;;;5.61;86.38
69879;BME280;57161;43.136;24.706;2023-03-03T07:58:48;99368.22;;;5.37;85.84
69879;BME280;57161;43.136;24.706;2023-03-03T08:01:37;99425.13;;;5.77;86.42
69879;BME280;57161;43.136;24.706;2023-03-03T08:04:23;99432.44;;;5.75;86.76
69879;BME280;57161;43.136;24.706;2023-03-03T08:06:53;99428.91;;;5.85;85.55
69879;BME280;57161;43.136;24.706;2023-03-03T08:11:53;99366.19;;;5.54;85.53
69879;BME280;57161;43.136;24.706;2023-03-03T08:14:28;99429.41;;;6.00;85.32
69879;BME280;57161;43.136;24.706;2023-03-03T08:16:55;99419.56;;;5.83;86.36
69879;BME280;57161;43.136;24.706;2023-03-03T08:19:21;99395.41;;;5.72;85.91
69879;BME280;57161;43.136;24.706;2023-03-03T08:21:47;99384.81;;;5.65;85.25
69879;BME280;57161;43.136;24.706;2023-03-03T08:24:13;99422.88;;;5.76;86.44
69879;BME280;57161;43.136;24.706;2023-03-03T08:26:38;99362.41;;;5.46;86.40
69879;BME280;57161;43.136;24.706;2023-03-03T08:29:04;99408.50;;;5.77;86.87
69879;BME280;57161;43.136;24.706;2023-03-03T08:31:29;99335.22;;;5.39;86.35
69879;BME280;57161;43.136;24.706;2023-03-03T08:33:55;99355.59;;;5.53;85.79
69879;BME280;57161;43.136;24.706;2023-03-03T08:36:20;99352.31;;;5.49;85.79
69879;BME280;57161;43.136;24.706;2023-03-03T08:38:49;99407.00;;;5.93;85.52
69879;BME280;57161;43.136;24.706;2023-03-03T08:41:14;99370.22;;;5.70;85.20
69879;BME280;57161;43.136;24.706;2023-03-03T08:43:40;99397.41;;;5.88;85.36
69879;BME280;57161;43.136;24.706;2023-03-03T08:46:06;99401.44;;;5.98;85.22
69879;BME280;57161;43.136;24.706;2023-03-03T08:48:34;99407.50;;;6.03;85.84
69879;BME280;57161;43.136;24.706;2023-03-03T08:51:00;99371.94;;;5.79;85.35
69879;BME280;57161;43.136;24.706;2023-03-03T08:53:26;99396.66;;;5.88;86.16
69879;BME280;57161;43.136;24.706;2023-03-03T08:55:52;99374.75;;;5.73;86.43
69879;BME280;57161;43.136;24.706;2023-03-03T08:58:19;99351.81;;;5.61;86.62
69879;BME280;57161;43.136;24.706;2023-03-03T09:00:46;99404.19;;;5.98;86.44
69879;BME280;57161;43.136;24.706;2023-03-03T09:03:11;99390.34;;;6.04;86.56
69879;BME280;57161;43.136;24.706;2023-03-03T09:05:38;99403.19;;;6.07;86.28
69879;BME280;57161;43.136;24.706;2023-03-03T09:08:04;99399.16;;;6.08;85.87
69879;BME280;57161;43.136;24.706;2023-03-03T09:10:30;99383.00;;;6.01;85.82
69879;BME280;57161;43.136;24.706;2023-03-03T09:12:57;99402.16;;;6.21;85.18
69879;BME280;57161;43.136;24.706;2023-03-03T09:15:30;99396.34;;;6.14;85.49
69879;BME280;57161;43.136;24.706;2023-03-03T09:17:58;99393.56;;;6.14;85.68
69879;BME280;57161;43.136;24.706;2023-03-03T09:22:57;99388.22;;;6.32;85.59
69879;BME280;57161;43.136;24.706;2023-03-03T09:25:31;99393.50;;;6.42;84.60
69879;BME280;57161;43.136;24.706;2023-03-03T09:27:58;99365.56;;;6.23;84.46
69879;BME280;57161;43.136;24.706;2023-03-03T09:30:39;99377.63;;;6.31;85.04
69879;BME280;57161;43.136;24.706;2023-03-03T09:33:22;99387.19;;;6.41;84.93
69879;BME280;57161;43.136;24.706;2023-03-03T09:38:52;99387.91;;;6.47;83.59
69879;BME280;57161;43.136;24.706;2023-03-03T09:49:30;99384.09;;;6.50;83.37
69879;BME280;57161;43.136;24.706;2023-03-03T09:52:09;99356.91;;;6.43;82.83
69879;BME280;57161;43.136;24.706;2023-03-03T10:08:52;99373.19;;;6.69;82.30
69879;BME280;57161;43.136;24.706;2023-03-03T10:16:47;99368.59;;;7.13;80.15
69879;BME280;57161;43.136;24.706;2023-03-03T10:20:20;99365.28;;;7.20;79.77
69879;BME280;57161;43.136;24.706;2023-03-03T10:22:25;99341.16;;;7.04;79.62
69879;BME280;57161;43.136;24.706;2023-03-03T10:25:15;99365.50;;;7.22;79.30
69879;BME280;57161;43.136;24.706;2023-03-03T10:41:47;99349.75;;;7.00;81.18
69879;BME280;57161;43.136;24.706;2023-03-03T10:47:36;99343.94;;;7.04;81.23
69879;BME280;57161;43.136;24.706;2023-03-03T10:50:16;99341.63;;;7.08;81.17
69879;BME280;57161;43.136;24.706;2023-03-03T11:01:12;99304.13;;;6.90;80.12
69879;BME280;57161;43.136;24.706;2023-03-03T11:03:47;99327.72;;;7.08;80.42
69879;BME280;57161;43.136;24.706;2023-03-03T11:06:24;99329.69;;;7.18;80.30
69879;BME280;57161;43.136;24.706;2023-03-03T11:08:55;99329.84;;;7.26;79.88
69879;BME280;57161;43.136;24.706;2023-03-03T11:11:45;99308.94;;;7.19;79.96
69879;BME280;57161;43.136;24.706;2023-03-03T11:14:56;99321.94;;;7.36;79.88
69879;BME280;57161;43.136;24.706;2023-03-03T11:37:01;99308.66;;;7.23;79.91
69879;BME280;57161;43.136;24.706;2023-03-03T11:39:28;99308.03;;;7.06;80.93
69879;BME280;57161;43.136;24.706;2023-03-03T11:44:56;99299.88;;;7.13;82.11
69879;BME280;57161;43.136;24.706;2023-03-03T11:47:37;99261.41;;;6.93;82.15
69879;BME280;57161;43.136;24.706;2023-03-03T11:50:15;99294.25;;;7.25;82.10
69879;BME280;57161;43.136;24.706;2023-03-03T11:55:37;99265.63;;;7.05;81.39
69879;BME280;57161;43.136;24.706;2023-03-03T11:58:25;99302.25;;;7.34;81.49
69879;BME280;57161;43.136;24.706;2023-03-03T12:01:22;99298.47;;;7.31;81.09
69879;BME280;57161;43.136;24.706;2023-03-03T12:04:02;99248.94;;;7.05;80.09
69879;BME280;57161;43.136;24.706;2023-03-03T12:06:53;99293.09;;;7.39;80.85
69879;BME280;57161;43.136;24.706;2023-03-03T12:27:02;99292.47;;;7.76;79.65
69879;BME280;57161;43.136;24.706;2023-03-03T12:29:40;99286.69;;;7.74;79.71
69879;BME280;57161;43.136;24.706;2023-03-03T12:32:55;99281.78;;;7.80;80.49
69879;BME280;57161;43.136;24.706;2023-03-03T12:38:10;99267.88;;;7.80;79.86
69879;BME280;57161;43.136;24.706;2023-03-03T12:43:31;99282.66;;;7.94;80.55
69879;BME280;57161;43.136;24.706;2023-03-03T12:46:18;99285.00;;;7.90;80.82
69879;BME280;57161;43.136;24.706;2023-03-03T12:48:47;99283.41;;;7.94;80.95
69879;BME280;57161;43.136;24.706;2023-03-03T12:51:23;99279.81;;;7.99;80.61
69879;BME280;57161;43.136;24.706;2023-03-03T12:53:57;99281.31;;;7.81;81.89
69879;BME280;57161;43.136;24.706;2023-03-03T12:59:24;99278.09;;;7.47;81.42
69879;BME280;57161;43.136;24.706;2023-03-03T13:10:37;99271.44;;;7.32;82.76
69879;BME280;57161;43.136;24.706;2023-03-03T13:16:40;99285.28;;;7.62;81.00
69879;BME280;57161;43.136;24.706;2023-03-03T13:19:15;99266.59;;;7.38;81.74
69879;BME280;57161;43.136;24.706;2023-03-03T13:21:50;99219.72;;;7.23;80.70
69879;BME280;57161;43.136;24.706;2023-03-03T13:27:06;99286.56;;;7.85;80.08
69879;BME280;57161;43.136;24.706;2023-03-03T13:30:03;99286.03;;;7.87;80.47
69879;BME280;57161;43.136;24.706;2023-03-03T13:32:46;99288.19;;;7.75;82.01
69879;BME280;57161;43.136;24.706;2023-03-03T13:37:47;99281.28;;;7.57;80.94
69879;BME280;57161;43.136;24.706;2023-03-03T13:42:41;99270.88;;;7.39;82.44
69879;BME280;57161;43.136;24.706;2023-03-03T13:45:18;99276.56;;;7.52;81.68
69879;BME280;57161;43.136;24.706;2023-03-03T13:50:35;99260.66;;;7.47;82.02
69879;BME280;57161;43.136;24.706;2023-03-03T13:58:52;99254.75;;;7.32;83.15
69879;BME280;57161;43.136;24.706;2023-03-03T14:04:30;99264.84;;;7.59;82.87
69879;BME280;57161;43.136;24.706;2023-03-03T14:07:17;99223.84;;;7.41;83.23
69879;BME280;57161;43.136;24.706;2023-03-03T14:09:47;99257.13;;;7.71;82.49
69879;BME280;57161;43.136;24.706;2023-03-03T14:12:24;99269.59;;;7.64;83.12
69879;BME280;57161;43.136;24.706;2023-03-03T14:20:28;99216.56;;;7.38;82.60
69879;BME280;57161;43.136;24.706;2023-03-03T14:23:01;99263.00;;;7.67;81.64
69879;BME280;57161;43.136;24.706;2023-03-03T14:25:56;99263.94;;;7.51;83.91
69879;BME280;57161;43.136;24.706;2023-03-03T14:28:25;99201.72;;;7.05;83.05
69879;BME280;57161;43.136;24.706;2023-03-03T14:30:57;99265.66;;;7.54;81.91
69879;BME280;57161;43.136;24.706;2023-03-03T14:33:33;99248.09;;;7.40;82.21
69879;BME280;57161;43.136;24.706;2023-03-03T14:36:01;99260.47;;;7.64;82.27
69879;BME280;57161;43.136;24.706;2023-03-03T14:41:16;99274.47;;;7.58;82.12
69879;BME280;57161;43.136;24.706;2023-03-03T14:44:30;99263.25;;;7.64;82.69
69879;BME280;57161;43.136;24.706;2023-03-03T14:46:38;99208.09;;;7.25;82.99
69879;BME280;57161;43.136;24.706;2023-03-03T14:49:12;99262.34;;;7.56;82.88
69879;BME280;57161;43.136;24.706;2023-03-03T14:51:42;99232.13;;;7.22;83.57
69879;BME280;57161;43.136;24.706;2023-03-03T14:56:58;99247.22;;;7.27;85.07
69879;BME280;57161;43.136;24.706;2023-03-03T14:59:25;99196.50;;;6.96;85.77
69879;BME280;57161;43.136;24.706;2023-03-03T15:04:43;99248.44;;;7.31;86.02
69879;BME280;57161;43.136;24.706;2023-03-03T15:07:32;99205.06;;;6.98;85.71
69879;BME280;57161;43.136;24.706;2023-03-03T15:09:59;99154.09;;;6.66;86.45
69879;BME280;57161;43.136;24.706;2023-03-03T15:17:39;99258.25;;;7.38;86.18
69879;BME280;57161;43.136;24.706;2023-03-03T15:23:00;99246.25;;;7.24;85.57
69879;BME280;57161;43.136;24.706;2023-03-03T15:34:02;99260.28;;;7.37;86.13
69879;BME280;57161;43.136;24.706;2023-03-03T15:36:46;99259.84;;;7.28;85.91
69879;BME280;57161;43.136;24.706;2023-03-03T15:39:24;99263.25;;;7.15;86.05
69879;BME280;57161;43.136;24.706;2023-03-03T15:54:05;99271.84;;;7.17;88.45
69879;BME280;57161;43.136;24.706;2023-03-03T15:56:49;99257.75;;;7.09;88.31
69879;BME280;57161;43.136;24.706;2023-03-03T16:04:55;99276.28;;;7.01;88.36
69879;BME280;57161;43.136;24.706;2023-03-03T16:07:30;99281.53;;;7.05;88.44
69879;BME280;57161;43.136;24.706;2023-03-03T16:18:08;99291.56;;;7.13;87.40
69879;BME280;57161;43.136;24.706;2023-03-03T16:47:58;99313.88;;;7.02;87.36
69879;BME280;57161;43.136;24.706;2023-03-03T17:01:31;99335.69;;;7.22;85.70
69879;BME280;57161;43.136;24.706;2023-03-03T17:06:56;99345.44;;;7.05;85.36
69879;BME280;57161;43.136;24.706;2023-03-03T17:09:41;99343.66;;;7.07;86.28
69879;BME280;57161;43.136;24.706;2023-03-03T17:18:11;99343.19;;;7.03;86.66
69879;BME280;57161;43.136;24.706;2023-03-03T17:20:45;99328.59;;;6.91;86.55
69879;BME280;57161;43.136;24.706;2023-03-03T17:26:30;99340.13;;;7.07;86.01
69879;BME280;57161;43.136;24.706;2023-03-03T17:38:01;99345.78;;;6.90;85.69
69879;BME280;57161;43.136;24.706;2023-03-03T17:41:06;99359.91;;;6.92;85.88
69879;BME280;57161;43.136;24.706;2023-03-03T17:46:45;99357.84;;;6.98;85.82
69879;BME280;57161;43.136;24.706;2023-03-03T17:54:39;99339.25;;;6.82;85.23
69879;BME280;57161;43.136;24.706;2023-03-03T18:10:57;99317.34;;;6.31;85.59
69879;BME280;57161;43.136;24.706;2023-03-03T18:19:35;99375.63;;;6.84;86.81
69879;BME280;57161;43.136;24.706;2023-03-03T18:24:25;99380.09;;;6.92;86.45
69879;BME280;57161;43.136;24.706;2023-03-03T18:26:52;99370.53;;;6.88;85.95
69879;BME280;57161;43.136;24.706;2023-03-03T18:29:26;99366.72;;;6.91;85.81